createdAt,value
2022-11-28T00:02:22.718Z,94974.78
2022-11-28T00:05:30.999Z,94969.09
2022-11-28T00:08:41.118Z,94959.84
2022-11-28T00:11:51.413Z,94940.81
2022-11-28T00:14:59.597Z,94933.53
2022-11-28T00:18:07.826Z,94941.66
2022-11-28T00:21:17.594Z,94942.25
2022-11-28T00:24:27.303Z,94938.84
2022-11-28T00:27:35.990Z,94929.06
2022-11-28T00:30:44.245Z,94925.47
2022-11-28T00:33:52.916Z,94925.16
2022-11-28T00:37:01.315Z,94922.00
2022-11-28T00:40:12.044Z,94926.69
2022-11-28T00:43:20.232Z,94930.72
2022-11-28T00:46:28.957Z,94927.03
2022-11-28T00:49:37.522Z,94938.16
2022-11-28T00:52:45.930Z,94937.41
2022-11-28T00:55:55.641Z,94946.75
2022-11-28T00:59:04.980Z,94949.00
2022-11-28T01:02:13.597Z,94943.50
2022-11-28T01:05:21.864Z,94948.47
2022-11-28T01:08:30.290Z,94947.31
2022-11-28T01:11:42.019Z,94936.25
2022-11-28T01:14:50.308Z,94920.03
2022-11-28T01:17:58.651Z,94919.47
2022-11-28T01:21:08.608Z,94922.78
2022-11-28T01:24:17.823Z,94914.06
2022-11-28T01:27:27.764Z,94906.47
2022-11-28T01:30:36.059Z,94899.97
2022-11-28T01:33:44.985Z,94894.03
2022-11-28T01:36:53.338Z,94902.88
2022-11-28T01:40:01.536Z,94900.13
2022-11-28T01:43:12.126Z,94888.13
2022-11-28T01:46:20.353Z,94883.47
2022-11-28T01:49:36.507Z,94872.81
2022-11-28T01:52:51.155Z,94883.44
2022-11-28T01:56:07.014Z,94890.28
2022-11-28T01:59:18.401Z,94878.09
2022-11-28T02:02:34.772Z,94872.00
2022-11-28T02:05:43.306Z,94875.22
2022-11-28T02:08:52.609Z,94873.63
2022-11-28T02:12:25.807Z,94878.88
2022-11-28T02:16:04.344Z,94874.16
2022-11-28T02:19:58.091Z,94871.63
2022-11-28T02:23:19.900Z,94881.84
2022-11-28T02:27:01.516Z,94885.19
2022-11-28T02:30:23.255Z,94882.94
2022-11-28T02:33:35.169Z,94887.66
2022-11-28T02:36:54.548Z,94893.19
2022-11-28T02:40:12.001Z,94909.78
2022-11-28T02:43:33.929Z,94891.41
2022-11-28T02:46:53.582Z,94871.13
2022-11-28T02:50:11.331Z,94861.47
2022-11-28T02:53:25.834Z,94849.00
2022-11-28T02:56:34.142Z,94850.50
2022-11-28T02:59:51.877Z,94845.13
2022-11-28T03:03:37.936Z,94851.72
2022-11-28T03:07:04.644Z,94845.66
2022-11-28T03:10:28.237Z,94847.84
2022-11-28T03:13:48.972Z,94842.50
2022-11-28T03:17:14.371Z,94837.28
2022-11-28T03:20:35.561Z,94842.75
2022-11-28T03:23:53.021Z,94839.97
2022-11-28T03:27:11.300Z,94844.81
2022-11-28T03:30:29.299Z,94836.63
2022-11-28T03:33:43.408Z,94839.97
2022-11-28T03:37:00.831Z,94842.19
2022-11-28T03:40:16.919Z,94854.19
2022-11-28T03:43:42.933Z,94830.50
2022-11-28T03:46:52.927Z,94846.69
2022-11-28T03:50:08.046Z,94846.38
2022-11-28T03:53:23.881Z,94825.41
2022-11-28T03:56:45.234Z,94818.13
2022-11-28T03:59:56.334Z,94806.00
2022-11-28T04:03:24.301Z,94805.41
2022-11-28T04:06:45.602Z,94792.00
2022-11-28T04:10:08.204Z,94780.56
2022-11-28T04:13:25.055Z,94782.63
2022-11-28T04:16:43.548Z,94771.03
2022-11-28T04:20:00.934Z,94764.53
2022-11-28T04:23:14.188Z,94757.47
2022-11-28T04:26:30.157Z,94760.09
2022-11-28T04:29:46.864Z,94757.03
2022-11-28T04:33:02.777Z,94753.81
2022-11-28T04:36:13.234Z,94762.00
2022-11-28T04:39:26.314Z,94764.91
2022-11-28T04:42:41.002Z,94757.13
2022-11-28T04:45:57.278Z,94755.09
2022-11-28T04:49:07.060Z,94758.53
2022-11-28T04:52:22.345Z,94740.03
2022-11-28T04:55:39.917Z,94751.56
2022-11-28T04:58:51.946Z,94759.28
2022-11-28T05:02:06.921Z,94754.78
2022-11-28T05:05:22.646Z,94747.47
2022-11-28T05:08:31.226Z,94747.75
2022-11-28T05:11:40.130Z,94757.00
2022-11-28T05:14:48.326Z,94762.66
2022-11-28T05:17:57.855Z,94762.66
2022-11-28T05:21:08.888Z,94762.16
2022-11-28T05:24:17.353Z,94759.00
2022-11-28T05:27:25.973Z,94739.81
2022-11-28T05:30:34.793Z,94729.38
2022-11-28T05:33:45.334Z,94717.94
2022-11-28T05:36:53.632Z,94721.97
2022-11-28T05:40:01.944Z,94743.78
2022-11-28T05:43:10.303Z,94812.78
2022-11-28T05:46:20.583Z,94814.13
2022-11-28T05:49:31.402Z,94809.44
2022-11-28T05:52:39.645Z,94797.84
2022-11-28T05:55:49.029Z,94821.88
2022-11-28T05:58:57.385Z,94802.38
2022-11-28T06:02:05.946Z,94805.00
2022-11-28T06:05:41.039Z,94799.34
2022-11-28T06:08:45.539Z,94803.91
2022-11-28T06:11:54.036Z,94803.75
2022-11-28T06:15:02.470Z,94798.91
2022-11-28T06:18:11.713Z,94784.00
2022-11-28T06:21:22.372Z,94776.28
2022-11-28T06:24:31.758Z,94770.72
2022-11-28T06:27:40.013Z,94780.47
2022-11-28T06:30:48.316Z,94779.00
2022-11-28T06:33:56.578Z,94766.44
2022-11-28T06:37:07.058Z,94772.81
2022-11-28T06:40:16.201Z,94771.72
2022-11-28T06:43:25.015Z,94767.53
2022-11-28T06:46:34.933Z,94776.91
2022-11-28T06:49:46.251Z,94761.16
2022-11-28T06:52:57.150Z,94779.97
2022-11-28T06:56:11.716Z,94783.06
2022-11-28T06:59:20.067Z,94777.81
2022-11-28T07:02:29.537Z,94765.44
2022-11-28T07:05:37.803Z,94762.88
2022-11-28T07:08:47.950Z,94772.66
2022-11-28T07:11:56.308Z,94750.44
2022-11-28T07:15:05.356Z,94762.44
2022-11-28T07:18:13.717Z,94763.94
2022-11-28T07:21:22.719Z,94776.00
2022-11-28T07:35:16.285Z,94762.03
2022-11-28T07:38:24.724Z,94742.47
2022-11-28T07:41:34.526Z,94753.34
2022-11-28T07:44:42.825Z,94752.44
2022-11-28T07:47:51.053Z,94750.09
2022-11-28T07:50:59.404Z,94758.72
2022-11-28T07:54:09.092Z,94762.38
2022-11-28T07:57:19.588Z,94771.75
2022-11-28T08:00:28.322Z,94771.91
2022-11-28T08:03:39.804Z,94777.50
2022-11-28T08:06:48.023Z,94759.22
2022-11-28T08:09:56.387Z,94751.34
2022-11-28T08:13:08.681Z,94739.72
2022-11-28T08:16:20.215Z,94733.63
2022-11-28T08:19:33.769Z,94729.44
2022-11-28T08:22:43.476Z,94736.00
2022-11-28T08:25:51.743Z,94716.47
2022-11-28T08:29:03.053Z,94723.59
2022-11-28T08:32:11.347Z,94722.63
2022-11-28T08:35:20.581Z,94720.56
2022-11-28T08:38:28.917Z,94725.31
2022-11-28T08:41:37.310Z,94736.44
2022-11-28T08:44:47.492Z,94726.16
2022-11-28T08:47:55.871Z,94726.91
2022-11-28T08:51:05.023Z,94734.78
2022-11-28T08:54:13.792Z,94735.44
2022-11-28T08:57:22.139Z,94736.56
2022-11-28T09:00:31.894Z,94737.56
2022-11-28T09:03:40.573Z,94730.06
2022-11-28T09:06:49.082Z,94734.03
2022-11-28T09:09:57.769Z,94731.41
2022-11-28T09:13:07.388Z,94739.66
2022-11-28T09:16:19.947Z,94738.47
2022-11-28T09:19:28.549Z,94733.22
2022-11-28T09:22:36.818Z,94736.66
2022-11-28T09:25:45.101Z,94735.66
2022-11-28T09:28:54.695Z,94741.72
2022-11-28T09:32:04.622Z,94739.22
2022-11-28T09:35:13.260Z,94745.13
2022-11-28T09:38:21.664Z,94738.38
2022-11-28T09:42:06.485Z,94741.63
2022-11-28T09:45:20.413Z,94745.22
2022-11-28T09:48:36.340Z,94739.78
2022-11-28T09:51:54.130Z,94743.03
2022-11-28T09:55:15.417Z,94750.66
2022-11-28T09:58:35.105Z,94742.16
2022-11-28T10:01:57.492Z,94744.59
2022-11-28T10:05:26.043Z,94749.09
2022-11-28T10:08:48.345Z,94755.50
2022-11-28T10:12:18.873Z,94747.06
2022-11-28T10:15:45.614Z,94739.22
2022-11-28T10:19:00.435Z,94747.66
2022-11-28T10:22:18.369Z,94738.50
2022-11-28T10:25:35.495Z,94740.56
2022-11-28T10:28:51.070Z,94744.44
2022-11-28T10:32:04.639Z,94742.56
2022-11-28T10:35:28.508Z,94744.72
2022-11-28T10:38:38.793Z,94729.94
2022-11-28T10:42:13.793Z,94732.00
2022-11-28T10:45:32.857Z,94727.50
2022-11-28T10:48:53.068Z,94724.34
2022-11-28T10:52:16.954Z,94737.97
2022-11-28T10:55:44.120Z,94731.69
2022-11-28T10:59:02.952Z,94732.00
2022-11-28T11:02:22.944Z,94726.66
2022-11-28T11:05:34.717Z,94725.44
2022-11-28T11:08:43.517Z,94720.81
2022-11-28T11:12:01.041Z,94722.63
2022-11-28T11:15:24.367Z,94718.97
2022-11-28T11:18:36.442Z,94714.44
2022-11-28T11:22:07.687Z,94717.25
2022-11-28T11:25:20.391Z,94711.88
2022-11-28T11:28:42.381Z,94713.97
2022-11-28T11:31:55.222Z,94712.09
2022-11-28T11:35:05.116Z,94715.03
2022-11-28T11:38:28.877Z,94715.66
2022-11-28T11:41:44.760Z,94718.56
2022-11-28T11:44:55.473Z,94713.03
2022-11-28T11:48:05.793Z,94712.47
2022-11-28T11:51:26.438Z,94710.66
2022-11-28T11:54:34.933Z,94713.44
2022-11-28T11:57:50.107Z,94706.44
2022-11-28T12:01:02.540Z,94709.72
2022-11-28T12:04:43.919Z,94706.13
2022-11-28T12:08:01.552Z,94709.34
2022-11-28T12:11:21.024Z,94705.19
2022-11-28T12:14:33.227Z,94706.97
2022-11-28T12:18:03.477Z,94700.56
2022-11-28T12:21:15.784Z,94695.38
2022-11-28T12:24:41.202Z,94692.47
2022-11-28T12:28:05.794Z,94692.69
2022-11-28T12:31:26.676Z,94684.03
2022-11-28T12:34:53.328Z,94686.91
2022-11-28T12:38:24.770Z,94699.69
2022-11-28T12:42:02.634Z,94694.53
2022-11-28T12:45:37.710Z,94695.00
2022-11-28T12:49:09.534Z,94694.34
2022-11-28T12:52:36.839Z,94695.28
2022-11-28T12:55:52.933Z,94703.06
2022-11-28T12:59:19.028Z,94695.22
2022-11-28T13:02:40.546Z,94698.47
2022-11-28T13:06:06.115Z,94704.78
2022-11-28T13:09:31.059Z,94698.88
2022-11-28T13:12:54.088Z,94696.84
2022-11-28T13:16:14.804Z,94702.13
2022-11-28T13:19:40.216Z,94692.88
2022-11-28T13:23:15.001Z,94706.38
2022-11-28T13:26:46.579Z,94697.88
2022-11-28T13:30:10.996Z,94700.72
2022-11-28T13:33:38.712Z,94708.66
2022-11-28T13:40:34.705Z,94707.31
2022-11-28T13:43:54.781Z,94706.41
2022-11-28T13:47:29.378Z,94699.47
2022-11-28T13:50:59.857Z,94705.84
2022-11-28T13:54:45.952Z,94700.72
2022-11-28T13:57:55.747Z,94699.44
2022-11-28T14:01:11.015Z,94699.44
2022-11-28T14:04:21.163Z,94698.16
2022-11-28T14:07:34.452Z,94697.78
2022-11-28T14:11:34.823Z,94698.44
2022-11-28T14:15:27.201Z,94700.50
2022-11-28T14:19:01.258Z,94702.72
2022-11-28T14:22:33.222Z,94699.59
2022-11-28T14:25:46.207Z,94699.50
2022-11-28T14:28:55.246Z,94705.41
2022-11-28T14:36:22.070Z,94690.56
2022-11-28T14:39:35.648Z,94699.19
2022-11-28T14:42:59.981Z,94696.72
2022-11-28T14:46:33.637Z,94701.50
2022-11-28T14:49:42.284Z,94695.47
2022-11-28T14:53:31.156Z,94692.66
2022-11-28T14:56:42.013Z,94697.94
2022-11-28T14:59:51.502Z,94690.00
2022-11-28T15:03:29.191Z,94695.78
2022-11-28T15:06:41.373Z,94700.59
2022-11-28T15:10:07.540Z,94700.81
2022-11-28T15:13:36.813Z,94697.06
2022-11-28T15:16:50.740Z,94694.09
2022-11-28T15:20:14.430Z,94699.09
2022-11-28T15:23:30.495Z,94697.41
2022-11-28T15:26:41.336Z,94689.09
2022-11-28T15:29:57.716Z,94695.47
2022-11-28T15:33:06.843Z,94689.22
2022-11-28T15:36:28.624Z,94691.19
2022-11-28T15:39:41.520Z,94684.84
2022-11-28T15:42:52.651Z,94685.69
2022-11-28T15:46:03.661Z,94685.84
2022-11-28T15:49:30.331Z,94681.22
2022-11-28T15:52:39.465Z,94679.75
2022-11-28T15:55:49.083Z,94674.28
2022-11-28T15:58:59.598Z,94681.69
2022-11-28T16:02:23.029Z,94681.22
2022-11-28T16:05:31.987Z,94681.69
2022-11-28T16:08:49.795Z,94689.97
2022-11-28T16:11:58.673Z,94680.41
2022-11-28T16:15:19.743Z,94680.28
2022-11-28T16:18:30.502Z,94680.28
2022-11-28T16:21:46.491Z,94684.38
2022-11-28T16:24:57.502Z,94674.53
2022-11-28T16:28:06.586Z,94678.66
2022-11-28T16:31:24.226Z,94679.97
2022-11-28T16:34:51.350Z,94678.06
2022-11-28T16:38:07.429Z,94681.34
2022-11-28T16:41:23.647Z,94681.34
2022-11-28T16:44:33.654Z,94678.44
2022-11-28T16:47:45.657Z,94680.25
2022-11-28T16:51:37.834Z,94687.84
2022-11-28T16:54:46.254Z,94687.03
2022-11-28T16:58:03.872Z,94686.03
2022-11-28T17:01:12.170Z,94683.44
2022-11-28T17:04:25.418Z,94687.03
2022-11-28T17:07:34.895Z,94685.75
2022-11-28T17:10:43.294Z,94681.47
2022-11-28T17:13:51.998Z,94691.53
2022-11-28T17:17:01.155Z,94681.13
2022-11-28T17:20:14.605Z,94681.13
2022-11-28T17:23:26.350Z,94681.63
2022-11-28T17:26:34.830Z,94678.16
2022-11-28T17:29:44.008Z,94677.81
2022-11-28T17:32:53.012Z,94671.19
2022-11-28T17:36:04.892Z,94673.72
2022-11-28T17:39:14.103Z,94669.91
2022-11-28T17:42:22.481Z,94676.19
2022-11-28T17:45:36.933Z,94674.19
2022-11-28T17:48:45.242Z,94673.38
2022-11-28T17:51:56.838Z,94676.47
2022-11-28T17:55:07.351Z,94680.59
2022-11-28T17:58:19.080Z,94686.78
2022-11-28T18:01:31.295Z,94674.31
2022-11-28T18:04:42.311Z,94684.25
2022-11-28T18:07:52.037Z,94683.22
2022-11-28T18:11:05.235Z,94687.66
2022-11-28T18:14:14.090Z,94676.13
2022-11-28T18:17:22.422Z,94684.03
2022-11-28T18:20:31.861Z,94667.50
2022-11-28T18:23:43.127Z,94668.66
2022-11-28T18:26:53.283Z,94669.31
2022-11-28T18:30:02.219Z,94666.66
2022-11-28T18:33:11.193Z,94668.31
2022-11-28T18:36:24.287Z,94669.13
2022-11-28T18:39:34.883Z,94671.13
2022-11-28T18:42:44.525Z,94672.72
2022-11-28T18:45:52.773Z,94669.56
2022-11-28T18:49:01.623Z,94673.22
2022-11-28T18:52:10.104Z,94678.16
2022-11-28T18:55:21.025Z,94676.38
2022-11-28T18:58:30.816Z,94679.69
2022-11-28T19:01:39.259Z,94680.06
2022-11-28T19:04:47.739Z,94688.13
2022-11-28T19:07:58.044Z,94682.34
2022-11-28T19:11:10.812Z,94681.91
2022-11-28T19:14:21.162Z,94689.00
2022-11-28T19:17:30.515Z,94689.00
2022-11-28T19:20:44.357Z,94696.44
2022-11-28T19:23:56.102Z,94701.19
2022-11-28T19:27:12.535Z,94688.66
2022-11-28T19:30:24.112Z,94691.47
2022-11-28T19:33:36.979Z,94701.84
2022-11-28T19:36:52.431Z,94698.72
2022-11-28T19:40:03.069Z,94701.00
2022-11-28T19:43:15.223Z,94706.13
2022-11-28T19:46:24.055Z,94696.75
2022-11-28T19:49:32.336Z,94698.38
2022-11-28T19:52:41.430Z,94698.19
2022-11-28T19:55:50.525Z,94691.47
2022-11-28T19:59:00.916Z,94704.16
2022-11-28T20:02:10.937Z,94698.72
2022-11-28T20:05:19.584Z,94705.19
2022-11-28T20:08:29.794Z,94711.78
2022-11-28T20:11:39.321Z,94708.44
2022-11-28T20:14:48.916Z,94714.09
2022-11-28T20:17:57.279Z,94718.38
2022-11-28T20:21:08.272Z,94726.28
2022-11-28T20:24:17.176Z,94722.28
2022-11-28T20:27:27.454Z,94725.78
2022-11-28T20:30:38.473Z,94722.63
2022-11-28T20:33:47.056Z,94724.28
2022-11-28T20:36:59.316Z,94723.66
2022-11-28T20:40:09.819Z,94724.97
2022-11-28T20:43:18.179Z,94727.31
2022-11-28T20:46:30.862Z,94728.25
2022-11-28T20:49:39.189Z,94725.78
2022-11-28T20:52:47.695Z,94724.13
2022-11-28T20:56:03.887Z,94731.56
2022-11-28T20:59:17.862Z,94731.88
2022-11-28T21:02:27.992Z,94723.69
2022-11-28T21:05:36.594Z,94722.84
2022-11-28T21:08:47.384Z,94720.84
2022-11-28T21:11:58.100Z,94718.03
2022-11-28T21:15:08.891Z,94720.38
2022-11-28T21:18:18.570Z,94715.78
2022-11-28T21:21:31.261Z,94727.81
2022-11-28T21:24:39.689Z,94720.06
2022-11-28T21:27:47.953Z,94724.69
2022-11-28T21:30:56.203Z,94722.34
2022-11-28T21:34:06.091Z,94722.34
2022-11-28T21:37:14.381Z,94726.13
2022-11-28T21:40:22.898Z,94721.50
2022-11-28T21:43:31.855Z,94727.06
2022-11-28T21:46:40.160Z,94725.63
2022-11-28T21:49:49.949Z,94731.88
2022-11-28T21:52:59.552Z,94727.75
2022-11-28T21:56:10.306Z,94725.97
2022-11-28T21:59:18.636Z,94732.41
2022-11-28T22:02:30.918Z,94724.50
2022-11-28T22:05:40.707Z,94733.72
2022-11-28T22:08:49.752Z,94729.28
2022-11-28T22:11:58.130Z,94732.25
2022-11-28T22:15:07.488Z,94728.66
2022-11-28T22:18:15.867Z,94730.28
2022-11-28T22:21:51.985Z,94724.34
2022-11-28T22:24:56.332Z,94730.28
2022-11-28T22:28:05.408Z,94731.25
2022-11-28T22:31:16.315Z,94735.69
2022-11-28T22:34:24.588Z,94735.84
2022-11-28T22:37:34.406Z,94736.06
2022-11-28T22:40:42.859Z,94740.50
2022-11-28T22:43:52.532Z,94738.34
2022-11-28T22:47:01.157Z,94736.00
2022-11-28T22:50:11.529Z,94739.50
2022-11-28T22:53:21.199Z,94736.69
2022-11-28T22:56:31.873Z,94729.59
2022-11-28T22:59:40.547Z,94732.75
2022-11-28T23:02:49.405Z,94739.16
2022-11-28T23:05:57.739Z,94744.41
2022-11-28T23:09:12.943Z,94741.47
2022-11-28T23:12:21.318Z,94735.03
2022-11-28T23:15:29.794Z,94733.88
2022-11-28T23:18:38.753Z,94729.59
2022-11-28T23:21:50.257Z,94728.25
2022-11-28T23:25:02.100Z,94723.16
2022-11-28T23:28:10.390Z,94728.25
2022-11-28T23:31:22.642Z,94734.38
2022-11-28T23:34:31.185Z,94723.66
2022-11-28T23:37:41.876Z,94723.25
2022-11-28T23:40:57.778Z,94732.16
2022-11-28T23:44:06.635Z,94728.06
2022-11-28T23:47:15.083Z,94729.22
2022-11-28T23:50:23.614Z,94727.56
2022-11-28T23:53:32.050Z,94722.97
2022-11-28T23:56:45.245Z,94727.56
2022-11-28T23:59:53.520Z,94724.09
